createdAt,value
2023-03-29T00:02:14.962Z,-1.87
2023-03-29T00:04:49.114Z,-1.86
2023-03-29T00:07:23.832Z,-1.89
2023-03-29T00:09:55.311Z,-1.92
2023-03-29T00:12:23.874Z,-1.95
2023-03-29T00:14:52.648Z,-1.98
2023-03-29T00:17:23.830Z,-2.02
2023-03-29T00:19:53.395Z,-2.06
2023-03-29T00:22:22.183Z,-2.08
2023-03-29T00:24:54.434Z,-2.11
2023-03-29T00:27:25.979Z,-2.15
2023-03-29T00:30:00.164Z,-2.16
2023-03-29T00:32:28.692Z,-2.13
2023-03-29T00:35:05.309Z,-2.07
2023-03-29T00:37:34.012Z,-2.04
2023-03-29T00:40:10.587Z,-2.02
2023-03-29T00:42:44.395Z,-2.02
2023-03-29T00:45:21.270Z,-2.04
2023-03-29T00:48:06.647Z,-2.09
2023-03-29T00:50:48.584Z,-2.13
2023-03-29T00:53:38.656Z,-2.13
2023-03-29T00:56:14.342Z,-2.12
2023-03-29T00:59:00.471Z,-2.11
2023-03-29T01:01:42.806Z,-2.07
2023-03-29T01:04:34.012Z,-1.99
2023-03-29T01:07:08.180Z,-1.96
2023-03-29T01:09:42.179Z,-1.89
2023-03-29T01:12:21.186Z,-1.84
2023-03-29T01:14:54.917Z,-1.84
2023-03-29T01:17:26.498Z,-1.85
2023-03-29T01:20:13.648Z,-1.86
2023-03-29T01:23:16.081Z,-1.85
2023-03-29T01:25:57.326Z,-1.80
2023-03-29T01:28:37.463Z,-1.77
2023-03-29T01:31:13.109Z,-1.74
2023-03-29T01:33:48.672Z,-1.73
2023-03-29T01:36:50.200Z,-1.72
2023-03-29T01:39:22.211Z,-1.79
2023-03-29T01:42:06.249Z,-1.83
2023-03-29T01:44:40.499Z,-1.82
2023-03-29T01:47:18.343Z,-1.76
2023-03-29T01:50:16.180Z,-1.73
2023-03-29T01:53:01.904Z,-1.76
2023-03-29T01:55:38.572Z,-1.80
2023-03-29T01:58:12.124Z,-1.79
2023-03-29T02:00:46.653Z,-1.84
2023-03-29T02:03:22.980Z,-1.84
2023-03-29T02:05:58.622Z,-1.87
2023-03-29T02:08:29.985Z,-1.93
2023-03-29T02:11:04.846Z,-1.94
2023-03-29T02:13:43.305Z,-1.97
2023-03-29T02:16:16.160Z,-2.01
2023-03-29T02:18:53.049Z,-2.02
2023-03-29T02:21:55.991Z,-2.06
2023-03-29T02:24:26.402Z,-2.10
2023-03-29T02:26:57.974Z,-2.13
2023-03-29T02:29:26.839Z,-2.16
2023-03-29T02:32:10.514Z,-2.16
2023-03-29T02:34:49.546Z,-2.13
2023-03-29T02:37:20.389Z,-2.11
2023-03-29T02:39:50.271Z,-2.09
2023-03-29T02:42:25.821Z,-2.10
2023-03-29T02:45:05.361Z,-2.13
2023-03-29T02:47:42.062Z,-2.18
2023-03-29T02:50:10.870Z,-2.20
2023-03-29T02:52:43.432Z,-2.23
2023-03-29T02:55:17.570Z,-2.25
2023-03-29T02:57:52.057Z,-2.27
2023-03-29T03:00:28.879Z,-2.27
2023-03-29T03:03:02.041Z,-2.27
2023-03-29T03:05:41.875Z,-2.27
2023-03-29T03:08:14.224Z,-2.25
2023-03-29T03:10:42.796Z,-2.27
2023-03-29T03:13:14.223Z,-2.31
2023-03-29T03:15:49.606Z,-2.31
2023-03-29T03:18:18.451Z,-2.29
2023-03-29T03:21:04.867Z,-2.20
2023-03-29T03:23:33.735Z,-2.13
2023-03-29T03:26:08.652Z,-2.05
2023-03-29T03:28:42.731Z,-2.02
2023-03-29T03:31:19.873Z,-2.03
2023-03-29T03:34:14.359Z,-2.02
2023-03-29T03:36:55.658Z,-2.03
2023-03-29T03:39:24.368Z,-2.07
2023-03-29T03:41:57.507Z,-2.09
2023-03-29T03:44:25.993Z,-2.05
2023-03-29T03:47:14.592Z,-2.03
2023-03-29T03:49:49.559Z,-2.03
2023-03-29T03:52:22.311Z,-2.14
2023-03-29T03:54:51.345Z,-2.19
2023-03-29T03:57:48.752Z,-2.24
2023-03-29T04:00:24.628Z,-2.27
2023-03-29T04:03:19.818Z,-2.27
2023-03-29T04:05:49.370Z,-2.30
2023-03-29T04:08:22.553Z,-2.35
2023-03-29T04:11:13.974Z,-2.39
2023-03-29T04:13:43.400Z,-2.41
2023-03-29T04:16:43.815Z,-2.38
2023-03-29T04:19:29.279Z,-2.41
2023-03-29T04:21:57.700Z,-2.45
2023-03-29T04:24:26.411Z,-2.52
2023-03-29T04:27:20.096Z,-2.64
2023-03-29T04:29:54.164Z,-2.74
2023-03-29T04:32:28.719Z,-2.81
2023-03-29T04:35:09.160Z,-2.87
2023-03-29T04:37:40.557Z,-2.88
2023-03-29T04:40:19.537Z,-2.92
2023-03-29T04:43:17.753Z,-2.98
2023-03-29T04:46:13.447Z,-3.03
2023-03-29T04:49:16.785Z,-3.01
2023-03-29T04:51:48.207Z,-2.97
2023-03-29T04:54:22.321Z,-2.96
2023-03-29T04:57:07.548Z,-2.91
2023-03-29T04:59:48.312Z,-2.88
2023-03-29T05:02:40.296Z,-2.87
2023-03-29T05:05:09.644Z,-2.87
2023-03-29T05:07:46.035Z,-2.88
2023-03-29T05:10:18.063Z,-2.88
2023-03-29T05:12:50.751Z,-2.93
2023-03-29T05:15:19.529Z,-2.93
2023-03-29T05:17:54.666Z,-2.92
2023-03-29T05:20:25.256Z,-2.92
2023-03-29T05:22:54.529Z,-2.90
2023-03-29T05:25:44.061Z,-2.90
2023-03-29T05:28:16.312Z,-2.89
2023-03-29T05:30:45.245Z,-2.87
2023-03-29T05:33:21.557Z,-2.84
2023-03-29T05:35:58.436Z,-2.79
2023-03-29T05:38:27.826Z,-2.73
2023-03-29T05:40:57.805Z,-2.66
2023-03-29T05:43:55.167Z,-2.59
2023-03-29T05:46:25.367Z,-2.50
2023-03-29T05:48:58.062Z,-2.37
2023-03-29T05:51:38.597Z,-2.23
2023-03-29T05:54:07.257Z,-2.06
2023-03-29T05:56:36.122Z,-1.86
2023-03-29T05:59:04.605Z,-1.74
2023-03-29T06:01:35.034Z,-1.67
2023-03-29T06:04:06.952Z,-1.61
2023-03-29T06:06:48.245Z,-1.61
2023-03-29T06:09:25.868Z,-1.59
2023-03-29T06:12:08.093Z,-1.58
2023-03-29T06:15:04.926Z,-1.52
2023-03-29T06:17:40.667Z,-1.54
2023-03-29T06:20:13.976Z,-1.60
2023-03-29T06:22:46.920Z,-1.54
2023-03-29T06:25:15.747Z,-1.47
2023-03-29T06:27:48.233Z,-1.44
2023-03-29T06:30:19.816Z,-1.36
2023-03-29T06:32:51.972Z,-1.31
2023-03-29T06:35:59.589Z,-1.29
2023-03-29T06:38:31.091Z,-1.26
2023-03-29T06:41:42.907Z,-1.16
2023-03-29T06:44:11.648Z,-1.17
2023-03-29T06:46:54.146Z,-1.17
2023-03-29T06:49:22.822Z,-1.19
2023-03-29T06:52:34.031Z,-1.15
2023-03-29T06:55:04.325Z,-1.13
2023-03-29T06:57:34.131Z,-1.08
2023-03-29T07:00:07.868Z,-0.98
2023-03-29T07:02:58.229Z,-0.92
2023-03-29T07:05:28.072Z,-0.91
2023-03-29T07:07:57.227Z,-0.92
2023-03-29T07:10:59.636Z,-0.92
2023-03-29T07:13:52.875Z,-0.93
2023-03-29T07:16:21.930Z,-0.91
2023-03-29T07:19:10.935Z,-0.93
2023-03-29T07:21:58.215Z,-0.90
2023-03-29T07:24:40.736Z,-0.80
2023-03-29T07:27:09.936Z,-0.71
2023-03-29T07:29:38.822Z,-0.56
2023-03-29T07:32:10.554Z,-0.31
2023-03-29T07:34:46.463Z,-0.15
2023-03-29T07:37:35.504Z,-0.09
2023-03-29T07:40:11.600Z,-0.02
2023-03-29T07:42:55.493Z,0.08
2023-03-29T07:45:29.957Z,0.27
2023-03-29T07:48:05.174Z,0.40
2023-03-29T07:50:47.614Z,0.28
2023-03-29T07:53:16.995Z,0.24
2023-03-29T07:55:47.918Z,0.09
2023-03-29T07:58:35.555Z,-0.00
2023-03-29T08:01:06.654Z,0.02
2023-03-29T08:03:55.348Z,0.07
2023-03-29T08:06:30.085Z,0.07
2023-03-29T08:08:58.852Z,0.10
2023-03-29T08:11:27.760Z,0.40
2023-03-29T08:14:02.629Z,0.72
2023-03-29T08:16:52.304Z,0.95
2023-03-29T08:19:41.832Z,0.94
2023-03-29T08:22:25.154Z,0.87
2023-03-29T08:25:12.604Z,0.79
2023-03-29T08:27:45.714Z,0.80
2023-03-29T08:30:15.793Z,0.90
2023-03-29T08:32:50.961Z,0.95
2023-03-29T08:35:22.493Z,1.11
2023-03-29T08:38:05.592Z,1.28
2023-03-29T08:40:36.178Z,1.56
2023-03-29T08:43:24.258Z,1.53
2023-03-29T08:46:42.556Z,1.62
2023-03-29T08:49:38.281Z,1.69
2023-03-29T08:52:20.033Z,1.88
2023-03-29T08:54:53.154Z,1.92
2023-03-29T08:57:49.045Z,1.83
2023-03-29T09:00:35.692Z,1.85
2023-03-29T09:03:12.317Z,1.79
2023-03-29T09:05:46.559Z,1.64
2023-03-29T09:08:23.523Z,1.59
2023-03-29T09:11:12.753Z,1.74
2023-03-29T09:14:05.324Z,1.67
2023-03-29T09:17:01.349Z,1.78
2023-03-29T09:20:20.387Z,1.86
2023-03-29T09:23:21.970Z,1.91
2023-03-29T09:26:18.826Z,1.69
2023-03-29T09:29:22.390Z,1.55
2023-03-29T09:31:53.572Z,1.58
2023-03-29T09:34:28.915Z,1.71
2023-03-29T09:37:08.559Z,1.97
2023-03-29T09:39:40.006Z,2.11
2023-03-29T09:42:14.416Z,2.13
2023-03-29T09:44:57.343Z,2.17
2023-03-29T09:47:36.180Z,2.10
2023-03-29T09:50:29.657Z,1.91
2023-03-29T09:53:00.398Z,1.82
2023-03-29T09:55:32.547Z,1.84
2023-03-29T09:58:16.625Z,1.95
2023-03-29T10:00:49.634Z,2.14
2023-03-29T10:03:24.297Z,2.18
2023-03-29T10:06:12.212Z,2.19
2023-03-29T10:08:57.997Z,2.31
2023-03-29T10:11:48.247Z,2.31
2023-03-29T10:14:38.621Z,2.39
2023-03-29T10:17:40.942Z,2.44
2023-03-29T10:20:18.842Z,2.42
2023-03-29T10:22:56.851Z,2.35
2023-03-29T10:25:30.644Z,2.40
2023-03-29T10:28:04.975Z,2.46
2023-03-29T10:30:37.613Z,2.43
2023-03-29T10:33:16.272Z,2.35
2023-03-29T10:35:49.233Z,2.34
2023-03-29T10:38:21.256Z,2.38
2023-03-29T10:40:56.122Z,2.37
2023-03-29T10:43:35.024Z,2.26
2023-03-29T10:46:31.687Z,2.08
2023-03-29T10:49:06.059Z,1.92
2023-03-29T10:51:34.927Z,1.86
2023-03-29T10:54:04.451Z,2.03
2023-03-29T10:56:46.942Z,2.25
2023-03-29T10:59:40.880Z,2.33
2023-03-29T11:02:17.229Z,2.36
2023-03-29T11:04:58.967Z,2.25
2023-03-29T11:07:49.983Z,2.28
2023-03-29T11:10:42.577Z,2.35
2023-03-29T11:13:28.112Z,2.34
2023-03-29T11:16:21.388Z,2.37
2023-03-29T11:18:59.318Z,2.56
2023-03-29T11:22:14.071Z,2.68
2023-03-29T11:25:10.359Z,2.72
2023-03-29T11:27:56.423Z,2.52
2023-03-29T11:30:48.336Z,2.45
2023-03-29T11:33:33.069Z,2.46
2023-03-29T11:36:17.851Z,2.51
2023-03-29T11:39:15.763Z,2.48
2023-03-29T11:41:50.213Z,2.37
2023-03-29T11:44:29.419Z,2.49
2023-03-29T11:47:05.134Z,2.63
2023-03-29T11:49:42.552Z,2.75
2023-03-29T11:52:20.574Z,2.88
2023-03-29T11:54:53.156Z,2.99
2023-03-29T11:57:33.830Z,3.08
2023-03-29T12:00:12.721Z,3.11
2023-03-29T12:02:58.750Z,3.10
2023-03-29T12:05:46.191Z,3.14
2023-03-29T12:08:40.090Z,3.26
2023-03-29T12:11:24.282Z,3.41
2023-03-29T12:14:02.789Z,3.38
2023-03-29T12:16:54.770Z,3.27
2023-03-29T12:19:29.438Z,3.10
2023-03-29T12:22:01.500Z,3.11
2023-03-29T12:24:32.805Z,3.25
2023-03-29T12:27:20.217Z,3.39
2023-03-29T12:29:57.752Z,3.49
2023-03-29T12:32:54.320Z,3.54
2023-03-29T12:36:07.048Z,3.46
2023-03-29T12:38:38.629Z,3.35
2023-03-29T12:41:37.513Z,3.30
2023-03-29T12:44:33.634Z,3.29
2023-03-29T12:47:28.060Z,3.31
2023-03-29T12:50:01.547Z,3.43
2023-03-29T12:52:37.390Z,3.47
2023-03-29T12:55:22.390Z,3.49
2023-03-29T12:58:21.453Z,3.44
2023-03-29T13:01:06.123Z,3.43
2023-03-29T13:03:52.201Z,3.50
2023-03-29T13:06:50.510Z,3.60
2023-03-29T13:09:30.498Z,3.67
2023-03-29T13:12:11.464Z,3.76
2023-03-29T13:14:47.620Z,3.89
2023-03-29T13:17:40.853Z,3.87
2023-03-29T13:20:26.176Z,3.83
2023-03-29T13:23:18.033Z,3.74
2023-03-29T13:26:17.081Z,3.63
2023-03-29T13:28:48.478Z,3.65
2023-03-29T13:31:35.572Z,3.68
2023-03-29T13:34:25.675Z,3.72
2023-03-29T13:37:12.930Z,3.80
2023-03-29T13:39:51.164Z,3.84
2023-03-29T13:42:42.045Z,3.88
2023-03-29T13:45:22.936Z,3.90
2023-03-29T13:48:05.512Z,3.95
2023-03-29T13:50:40.907Z,4.02
2023-03-29T13:53:29.452Z,4.03
2023-03-29T13:55:59.464Z,4.07
2023-03-29T13:58:48.163Z,4.05
2023-03-29T14:01:38.755Z,4.09
2023-03-29T14:04:16.406Z,4.08
2023-03-29T14:06:51.252Z,4.08
2023-03-29T14:09:26.343Z,4.08
2023-03-29T14:11:55.377Z,4.04
2023-03-29T14:14:26.132Z,3.95
2023-03-29T14:16:57.047Z,3.82
2023-03-29T14:19:37.219Z,3.74
2023-03-29T14:22:14.082Z,3.80
2023-03-29T14:24:51.799Z,3.80
2023-03-29T14:27:22.290Z,3.82
2023-03-29T14:29:53.383Z,3.81
2023-03-29T14:32:29.954Z,3.79
2023-03-29T14:35:00.507Z,3.76
2023-03-29T14:37:30.391Z,3.75
2023-03-29T14:39:59.715Z,3.82
2023-03-29T14:42:29.289Z,3.84
2023-03-29T14:45:07.491Z,3.81
2023-03-29T14:47:37.050Z,3.83
2023-03-29T14:50:07.349Z,3.87
2023-03-29T14:52:37.231Z,3.89
2023-03-29T14:55:07.398Z,3.91
2023-03-29T14:57:38.070Z,3.93
2023-03-29T15:00:27.088Z,3.93
2023-03-29T15:03:02.976Z,3.88
2023-03-29T15:05:39.243Z,3.87
2023-03-29T15:08:15.108Z,3.86
2023-03-29T15:10:45.023Z,3.84
2023-03-29T15:13:28.521Z,3.79
2023-03-29T15:16:00.807Z,3.79
2023-03-29T15:18:35.896Z,3.76
2023-03-29T15:21:05.320Z,3.70
2023-03-29T15:23:46.950Z,3.64
2023-03-29T15:26:26.503Z,3.57
2023-03-29T15:29:08.374Z,3.58
2023-03-29T15:31:39.354Z,3.60
2023-03-29T15:34:24.308Z,3.69
2023-03-29T15:36:54.131Z,3.92
2023-03-29T15:39:22.708Z,4.23
2023-03-29T15:41:53.099Z,4.33
2023-03-29T15:44:26.832Z,4.27
2023-03-29T15:46:57.976Z,4.21
2023-03-29T15:49:27.172Z,4.16
2023-03-29T15:51:55.639Z,4.15
2023-03-29T15:54:24.996Z,4.19
2023-03-29T15:56:59.729Z,4.14
2023-03-29T15:59:29.159Z,3.99
2023-03-29T16:01:59.228Z,3.91
2023-03-29T16:04:27.889Z,3.83
2023-03-29T16:06:56.615Z,3.75
2023-03-29T16:09:25.959Z,3.66
2023-03-29T16:11:54.940Z,3.62
2023-03-29T16:14:27.453Z,3.55
2023-03-29T16:16:58.289Z,3.40
2023-03-29T16:19:28.541Z,3.31
2023-03-29T16:21:58.427Z,3.23
2023-03-29T16:24:31.318Z,3.17
2023-03-29T16:27:02.934Z,3.07
2023-03-29T16:29:32.107Z,3.00
2023-03-29T16:32:01.046Z,2.94
2023-03-29T16:34:30.290Z,2.88
2023-03-29T16:36:58.799Z,2.82
2023-03-29T16:39:27.325Z,2.73
2023-03-29T16:41:56.077Z,2.65
2023-03-29T16:44:26.627Z,2.56
2023-03-29T16:46:57.590Z,2.49
2023-03-29T16:49:26.325Z,2.43
2023-03-29T16:51:56.262Z,2.36
2023-03-29T16:54:25.996Z,2.31
2023-03-29T16:56:54.647Z,2.26
2023-03-29T16:59:23.752Z,2.21
2023-03-29T17:01:52.490Z,2.15
2023-03-29T17:04:21.360Z,2.09
2023-03-29T17:06:53.716Z,2.04
2023-03-29T17:09:22.918Z,2.00
2023-03-29T17:11:51.704Z,1.94
2023-03-29T17:14:20.561Z,1.88
2023-03-29T17:16:49.310Z,1.81
2023-03-29T17:19:18.051Z,1.75
2023-03-29T17:21:46.599Z,1.72
2023-03-29T17:24:15.103Z,1.66
2023-03-29T17:26:45.705Z,1.62
2023-03-29T17:29:14.475Z,1.62
2023-03-29T17:31:48.057Z,1.59
2023-03-29T17:34:19.306Z,1.56
2023-03-29T17:36:48.999Z,1.52
2023-03-29T17:39:18.927Z,1.47
2023-03-29T17:41:47.816Z,1.43
2023-03-29T17:44:16.373Z,1.40
2023-03-29T17:46:45.250Z,1.37
2023-03-29T17:49:15.140Z,1.34
2023-03-29T17:51:43.715Z,1.30
2023-03-29T17:54:12.654Z,1.28
2023-03-29T17:56:41.334Z,1.25
2023-03-29T17:59:09.906Z,1.22
2023-03-29T18:01:39.438Z,1.19
2023-03-29T18:04:08.410Z,1.15
2023-03-29T18:06:37.056Z,1.12
2023-03-29T18:09:05.793Z,1.09
2023-03-29T18:11:36.515Z,1.06
2023-03-29T18:14:05.503Z,1.04
2023-03-29T18:16:35.136Z,1.01
2023-03-29T18:19:03.687Z,0.99
2023-03-29T18:21:33.077Z,0.96
2023-03-29T18:24:04.343Z,0.93
2023-03-29T18:26:33.589Z,0.89
2023-03-29T18:32:13.810Z,0.83
2023-03-29T18:34:43.490Z,0.74
2023-03-29T18:37:17.654Z,0.68
2023-03-29T18:39:51.893Z,0.64
2023-03-29T18:42:29.398Z,0.59
2023-03-29T18:44:58.012Z,0.55
2023-03-29T18:47:27.309Z,0.51
2023-03-29T18:50:02.753Z,0.50
2023-03-29T18:52:32.068Z,0.50
2023-03-29T18:55:03.177Z,0.47
2023-03-29T18:57:37.893Z,0.42
2023-03-29T19:00:12.498Z,0.39
2023-03-29T19:02:41.623Z,0.35
2023-03-29T19:05:11.414Z,0.35
2023-03-29T19:07:40.317Z,0.35
2023-03-29T19:10:09.082Z,0.33
2023-03-29T19:12:37.659Z,0.28
2023-03-29T19:15:07.257Z,0.22
2023-03-29T19:17:35.878Z,0.11
2023-03-29T19:20:21.412Z,0.02
2023-03-29T19:22:50.029Z,-0.04
2023-03-29T19:25:19.223Z,-0.08
2023-03-29T19:27:48.107Z,-0.12
2023-03-29T19:30:20.357Z,-0.15
2023-03-29T19:32:49.677Z,-0.18
2023-03-29T19:35:19.060Z,-0.20
2023-03-29T19:37:47.857Z,-0.22
2023-03-29T19:40:17.426Z,-0.24
2023-03-29T19:42:48.008Z,-0.25
2023-03-29T19:45:17.025Z,-0.26
2023-03-29T19:47:47.760Z,-0.28
2023-03-29T19:50:16.614Z,-0.30
2023-03-29T19:52:45.248Z,-0.35
2023-03-29T19:55:13.784Z,-0.39
2023-03-29T19:57:42.705Z,-0.46
2023-03-29T20:00:14.297Z,-0.51
2023-03-29T20:02:44.533Z,-0.55
2023-03-29T20:05:14.441Z,-0.62
2023-03-29T20:07:43.161Z,-0.66
2023-03-29T20:10:11.667Z,-0.69
2023-03-29T20:12:40.148Z,-0.71
2023-03-29T20:15:09.860Z,-0.77
2023-03-29T20:17:40.996Z,-0.81
